createdAt,value
2019-03-31T00:00:27.798Z,48.60
2019-03-31T00:03:08.743Z,49.17
2019-03-31T00:05:49.454Z,48.03
2019-03-31T00:08:29.955Z,48.03
2019-03-31T00:11:11.062Z,47.97
2019-03-31T00:13:51.754Z,47.53
2019-03-31T00:16:32.362Z,47.33
2019-03-31T00:19:13.053Z,47.47
2019-03-31T00:21:53.756Z,46.87
2019-03-31T00:24:34.420Z,48.37
2019-03-31T00:27:15.086Z,45.30
2019-03-31T00:29:55.935Z,47.70
2019-03-31T00:32:36.833Z,48.37
2019-03-31T00:35:17.342Z,49.13
2019-03-31T00:37:58.178Z,47.23
2019-03-31T00:40:39.143Z,49.13
2019-03-31T00:43:19.849Z,48.63
2019-03-31T00:46:00.836Z,47.57
2019-03-31T00:48:41.269Z,48.50
2019-03-31T00:51:21.930Z,49.17
2019-03-31T00:54:02.977Z,49.33
2019-03-31T00:56:43.739Z,49.87
2019-03-31T00:59:24.507Z,51.40
2019-03-31T01:02:06.864Z,49.83
2019-03-31T01:04:45.747Z,50.57
2019-03-31T01:10:36.123Z,53.03
2019-03-31T01:13:23.916Z,52.80
2019-03-31T01:16:04.984Z,52.43
2019-03-31T01:18:45.718Z,50.47
2019-03-31T01:21:26.379Z,52.27
2019-03-31T01:24:07.012Z,54.67
2019-03-31T01:26:47.997Z,51.53
2019-03-31T01:29:28.790Z,54.97
2019-03-31T01:32:10.686Z,51.23
2019-03-31T01:34:51.760Z,54.13
2019-03-31T01:37:32.619Z,53.03
2019-03-31T01:40:13.826Z,54.50
2019-03-31T01:42:54.255Z,55.57
2019-03-31T01:45:34.832Z,52.47
2019-03-31T01:48:15.327Z,54.50
2019-03-31T01:50:55.946Z,55.60
2019-03-31T01:53:36.544Z,55.97
2019-03-31T01:56:17.244Z,57.63
2019-03-31T01:58:57.732Z,55.30
2019-03-31T02:01:38.885Z,57.30
2019-03-31T02:04:19.296Z,57.67
2019-03-31T02:07:00.322Z,55.90
2019-03-31T02:09:40.953Z,54.70
2019-03-31T02:12:23.560Z,57.57
2019-03-31T02:15:05.661Z,59.13
2019-03-31T02:17:46.158Z,56.63
2019-03-31T02:20:26.696Z,55.50
2019-03-31T02:23:07.487Z,59.80
2019-03-31T02:25:48.651Z,57.73
2019-03-31T02:28:29.064Z,57.30
2019-03-31T02:31:10.049Z,57.33
2019-03-31T02:33:50.689Z,59.47
2019-03-31T02:36:31.065Z,56.80
2019-03-31T02:39:11.960Z,55.33
2019-03-31T02:41:52.340Z,59.70
2019-03-31T02:44:32.946Z,59.83
2019-03-31T02:47:13.678Z,57.07
2019-03-31T02:49:54.351Z,56.27
2019-03-31T02:52:34.962Z,57.20
2019-03-31T02:55:15.733Z,53.27
2019-03-31T02:57:56.214Z,55.20
2019-03-31T03:00:36.571Z,52.70
2019-03-31T03:03:17.552Z,52.13
2019-03-31T03:05:58.572Z,51.60
2019-03-31T03:08:39.101Z,51.87
2019-03-31T03:11:19.944Z,51.93
2019-03-31T03:14:02.941Z,51.23
2019-03-31T03:16:43.396Z,52.80
2019-03-31T03:19:24.384Z,48.80
2019-03-31T03:22:05.177Z,48.87
2019-03-31T03:24:46.136Z,47.33
2019-03-31T03:27:26.672Z,49.67
2019-03-31T03:30:06.932Z,46.63
2019-03-31T03:33:12.726Z,48.30
2019-03-31T03:35:30.113Z,48.57
2019-03-31T03:38:10.836Z,44.03
2019-03-31T03:40:51.779Z,40.97
2019-03-31T03:43:32.721Z,40.27
2019-03-31T03:46:13.402Z,39.93
2019-03-31T03:48:54.031Z,41.87
2019-03-31T03:51:34.467Z,43.57
2019-03-31T03:54:14.991Z,37.80
2019-03-31T03:56:55.885Z,39.87
2019-03-31T03:59:36.666Z,37.63
2019-03-31T04:02:17.254Z,37.00
2019-03-31T04:04:58.137Z,36.47
2019-03-31T04:07:38.741Z,36.67
2019-03-31T04:10:19.890Z,34.30
2019-03-31T04:13:00.407Z,34.37
2019-03-31T04:15:41.227Z,33.67
2019-03-31T04:18:21.913Z,31.80
2019-03-31T04:21:02.702Z,30.80
2019-03-31T04:23:43.380Z,28.37
2019-03-31T04:26:23.936Z,27.43
2019-03-31T04:29:04.501Z,25.17
2019-03-31T04:31:45.688Z,25.37
2019-03-31T04:34:26.397Z,26.07
2019-03-31T04:37:07.153Z,24.73
2019-03-31T04:39:49.300Z,27.23
2019-03-31T04:42:29.743Z,23.47
2019-03-31T04:45:10.271Z,24.40
2019-03-31T04:47:51.058Z,24.77
2019-03-31T04:50:32.003Z,25.30
2019-03-31T04:53:12.666Z,24.97
2019-03-31T04:55:53.447Z,24.17
2019-03-31T04:58:34.377Z,25.90
2019-03-31T05:01:14.823Z,25.10
2019-03-31T05:04:04.580Z,25.67
2019-03-31T05:06:38.361Z,24.17
2019-03-31T05:09:19.237Z,27.40
2019-03-31T05:11:59.981Z,25.97
2019-03-31T05:14:40.856Z,23.33
2019-03-31T05:17:21.477Z,26.53
2019-03-31T05:20:02.421Z,26.17
2019-03-31T05:22:43.623Z,28.20
2019-03-31T05:25:24.458Z,27.00
2019-03-31T05:28:06.879Z,26.53
2019-03-31T05:30:47.848Z,27.07
2019-03-31T05:33:28.647Z,28.67
2019-03-31T05:39:21.825Z,30.70
2019-03-31T05:42:02.450Z,28.50
2019-03-31T05:44:43.275Z,28.87
2019-03-31T05:47:24.323Z,27.27
2019-03-31T05:50:04.975Z,23.03
2019-03-31T05:52:45.400Z,24.57
2019-03-31T05:55:26.031Z,23.30
2019-03-31T05:58:07.068Z,24.07
2019-03-31T06:00:48.353Z,24.17
2019-03-31T06:03:28.752Z,21.33
2019-03-31T06:06:09.749Z,27.43
2019-03-31T06:08:50.462Z,24.13
2019-03-31T06:11:31.357Z,24.13
2019-03-31T06:14:12.113Z,26.73
2019-03-31T06:16:52.651Z,25.30
2019-03-31T06:19:33.535Z,24.17
2019-03-31T06:22:14.192Z,25.67
2019-03-31T06:24:55.023Z,23.93
2019-03-31T06:27:35.857Z,27.83
2019-03-31T06:30:16.810Z,25.80
2019-03-31T06:32:57.554Z,27.77
2019-03-31T06:35:38.530Z,27.93
2019-03-31T06:38:19.433Z,26.70
2019-03-31T06:41:00.239Z,28.33
2019-03-31T06:43:40.768Z,26.03
2019-03-31T06:46:21.698Z,26.00
2019-03-31T06:49:02.250Z,25.40
2019-03-31T06:51:42.832Z,25.67
2019-03-31T06:54:23.420Z,22.90
2019-03-31T06:57:04.406Z,22.63
2019-03-31T06:59:45.374Z,21.73
2019-03-31T07:02:26.260Z,22.63
2019-03-31T07:05:06.978Z,21.23
2019-03-31T07:07:47.911Z,20.20
2019-03-31T07:10:28.580Z,21.50
2019-03-31T07:13:09.315Z,21.27
2019-03-31T07:15:49.875Z,21.70
2019-03-31T07:18:30.684Z,22.40
2019-03-31T07:21:11.590Z,22.13
2019-03-31T07:23:52.373Z,20.93
2019-03-31T07:26:33.269Z,21.00
2019-03-31T07:29:14.022Z,21.30
2019-03-31T07:31:54.401Z,17.70
2019-03-31T07:34:34.899Z,19.83
2019-03-31T07:37:15.509Z,17.80
2019-03-31T07:39:56.018Z,17.37
2019-03-31T07:42:36.695Z,17.33
2019-03-31T07:45:17.735Z,18.90
2019-03-31T07:47:58.288Z,19.07
2019-03-31T07:50:39.417Z,18.20
2019-03-31T07:53:20.086Z,17.77
2019-03-31T07:56:01.115Z,16.43
2019-03-31T07:58:42.369Z,17.10
2019-03-31T08:01:23.137Z,17.07
2019-03-31T08:04:04.153Z,15.40
2019-03-31T08:06:44.903Z,16.13
2019-03-31T08:09:25.826Z,16.53
2019-03-31T08:12:06.527Z,13.43
2019-03-31T08:14:47.280Z,13.87
2019-03-31T08:17:28.066Z,13.90
2019-03-31T08:20:08.917Z,12.57
2019-03-31T08:22:49.802Z,12.77
2019-03-31T08:25:30.593Z,11.83
2019-03-31T08:28:11.185Z,12.07
2019-03-31T08:30:52.329Z,11.67
2019-03-31T08:33:33.351Z,11.63
2019-03-31T08:36:13.979Z,11.40
2019-03-31T08:38:54.524Z,12.67
2019-03-31T08:41:35.478Z,12.07
2019-03-31T08:44:15.839Z,10.67
2019-03-31T08:46:56.508Z,11.57
2019-03-31T08:49:37.362Z,10.40
2019-03-31T08:52:18.462Z,10.00
2019-03-31T08:54:59.328Z,10.00
2019-03-31T08:57:40.407Z,9.63
2019-03-31T09:03:14.622Z,8.83
2019-03-31T09:06:01.694Z,9.97
2019-03-31T09:08:38.983Z,8.70
2019-03-31T09:11:19.686Z,8.63
2019-03-31T09:14:00.279Z,9.23
2019-03-31T09:16:41.198Z,8.10
2019-03-31T09:19:21.888Z,8.27
2019-03-31T09:22:02.654Z,8.97
2019-03-31T09:24:44.357Z,8.20
2019-03-31T09:27:25.072Z,8.60
2019-03-31T09:30:05.616Z,7.03
2019-03-31T09:32:46.136Z,8.10
2019-03-31T09:35:27.108Z,7.70
2019-03-31T09:38:07.912Z,7.70
2019-03-31T09:40:48.470Z,7.30
2019-03-31T09:43:29.271Z,7.50
2019-03-31T09:46:10.264Z,8.23
2019-03-31T09:48:51.009Z,7.57
2019-03-31T09:51:31.688Z,6.30
2019-03-31T09:54:12.422Z,7.90
2019-03-31T09:56:53.166Z,7.90
2019-03-31T09:59:33.980Z,7.93
2019-03-31T10:02:15.084Z,7.33
2019-03-31T10:04:55.854Z,7.00
2019-03-31T10:07:36.843Z,6.50
2019-03-31T10:10:17.755Z,7.10
2019-03-31T10:12:58.530Z,8.17
2019-03-31T10:15:40.180Z,8.30
2019-03-31T10:18:21.188Z,7.20
2019-03-31T10:21:01.896Z,7.90
2019-03-31T10:23:42.513Z,7.80
2019-03-31T10:26:31.730Z,7.83
2019-03-31T10:29:05.495Z,8.13
2019-03-31T10:31:46.103Z,8.13
2019-03-31T10:34:26.882Z,7.37
2019-03-31T10:37:07.399Z,7.80
2019-03-31T10:39:48.296Z,7.13
2019-03-31T10:42:29.151Z,8.30
2019-03-31T10:45:09.577Z,6.37
2019-03-31T10:47:50.451Z,7.33
2019-03-31T10:50:31.576Z,6.83
2019-03-31T10:53:12.682Z,6.83
2019-03-31T10:55:53.328Z,8.40
2019-03-31T10:58:33.888Z,7.83
2019-03-31T11:01:14.469Z,7.13
2019-03-31T11:03:55.201Z,6.93
2019-03-31T11:06:35.857Z,6.73
2019-03-31T11:09:16.822Z,6.97
2019-03-31T11:11:57.471Z,7.03
2019-03-31T11:14:38.102Z,7.03
2019-03-31T11:17:18.651Z,7.13
2019-03-31T11:20:00.854Z,6.70
2019-03-31T11:23:01.142Z,5.87
2019-03-31T11:25:41.884Z,6.20
2019-03-31T11:28:24.592Z,6.07
2019-03-31T11:31:05.515Z,6.10
2019-03-31T11:33:46.010Z,5.80
2019-03-31T11:36:26.505Z,5.13
2019-03-31T11:39:07.044Z,6.50
2019-03-31T11:41:47.949Z,5.30
2019-03-31T11:44:28.809Z,5.13
2019-03-31T11:47:09.434Z,5.77
2019-03-31T11:49:50.428Z,5.23
2019-03-31T11:52:30.739Z,4.77
2019-03-31T11:55:11.376Z,5.13
2019-03-31T11:57:52.268Z,4.97
2019-03-31T12:00:34.450Z,4.97
2019-03-31T12:03:15.436Z,4.97
2019-03-31T12:05:56.111Z,4.53
2019-03-31T12:08:36.871Z,4.20
2019-03-31T12:11:18.410Z,4.37
2019-03-31T12:13:59.370Z,4.13
2019-03-31T12:16:39.899Z,3.63
2019-03-31T12:19:21.033Z,4.30
2019-03-31T12:22:01.656Z,4.03
2019-03-31T12:24:42.392Z,3.83
2019-03-31T12:27:23.118Z,4.00
2019-03-31T12:30:04.246Z,3.80
2019-03-31T12:32:44.848Z,2.97
2019-03-31T12:35:25.517Z,3.57
2019-03-31T12:38:06.484Z,3.20
2019-03-31T12:40:47.073Z,3.10
2019-03-31T12:43:27.933Z,3.47
2019-03-31T12:46:08.727Z,3.50
2019-03-31T12:48:49.531Z,3.00
2019-03-31T12:51:30.506Z,3.20
2019-03-31T12:54:11.451Z,3.47
2019-03-31T12:56:52.334Z,3.30
2019-03-31T12:59:32.828Z,3.10
2019-03-31T13:02:13.745Z,3.20
2019-03-31T13:04:54.676Z,3.13
2019-03-31T13:07:35.173Z,3.10
2019-03-31T13:10:15.911Z,2.50
2019-03-31T13:12:56.631Z,2.90
2019-03-31T13:15:37.556Z,3.53
2019-03-31T13:18:17.940Z,3.10
2019-03-31T13:20:58.592Z,2.73
2019-03-31T13:23:37.389Z,3.43
2019-03-31T13:26:18.268Z,2.67
2019-03-31T13:28:58.867Z,2.47
2019-03-31T13:31:39.675Z,2.80
2019-03-31T13:34:20.619Z,3.00
2019-03-31T13:37:02.834Z,3.00
2019-03-31T13:39:43.774Z,3.03
2019-03-31T13:42:25.250Z,2.43
2019-03-31T13:45:05.692Z,2.93
2019-03-31T13:47:46.348Z,2.77
2019-03-31T13:50:26.657Z,2.90
2019-03-31T13:53:07.404Z,2.93
2019-03-31T13:55:47.779Z,2.97
2019-03-31T13:58:28.916Z,2.73
2019-03-31T14:01:11.087Z,2.90
2019-03-31T14:03:51.641Z,2.30
2019-03-31T14:06:32.795Z,2.17
2019-03-31T14:09:13.406Z,2.33
2019-03-31T14:11:53.811Z,2.60
2019-03-31T14:14:34.717Z,3.07
2019-03-31T14:17:15.460Z,2.83
2019-03-31T14:19:55.989Z,2.70
2019-03-31T14:22:36.873Z,2.73
2019-03-31T14:25:17.429Z,2.43
2019-03-31T14:27:58.006Z,2.47
2019-03-31T14:30:38.748Z,2.50
2019-03-31T14:33:19.132Z,2.50
2019-03-31T14:35:59.953Z,2.50
2019-03-31T14:38:40.823Z,2.50
2019-03-31T14:41:21.524Z,2.70
2019-03-31T14:44:02.444Z,1.90
2019-03-31T14:46:43.361Z,2.80
2019-03-31T14:49:25.861Z,2.63
2019-03-31T14:52:04.449Z,2.40
2019-03-31T14:54:55.679Z,2.27
2019-03-31T14:57:34.809Z,2.40
2019-03-31T15:00:15.635Z,2.70
2019-03-31T15:02:56.050Z,2.03
2019-03-31T15:05:37.018Z,2.20
2019-03-31T15:08:18.108Z,2.27
2019-03-31T15:10:58.848Z,1.83
2019-03-31T15:13:39.770Z,2.10
2019-03-31T15:16:20.727Z,2.07
2019-03-31T15:19:01.196Z,2.57
2019-03-31T15:21:44.743Z,2.30
2019-03-31T15:24:24.676Z,1.80
2019-03-31T15:27:05.554Z,2.20
2019-03-31T15:29:46.189Z,2.20
2019-03-31T15:32:28.131Z,1.73
2019-03-31T15:35:08.572Z,2.07
2019-03-31T15:37:49.284Z,1.67
2019-03-31T15:40:30.221Z,2.00
2019-03-31T15:43:10.769Z,2.20
2019-03-31T15:45:51.743Z,2.73
2019-03-31T15:48:32.742Z,2.20
2019-03-31T15:51:13.607Z,1.97
2019-03-31T15:53:52.462Z,2.37
2019-03-31T15:56:40.319Z,2.13
2019-03-31T15:59:20.907Z,1.97
2019-03-31T16:02:01.399Z,2.37
2019-03-31T16:04:42.408Z,1.80
2019-03-31T16:07:24.948Z,2.40
2019-03-31T16:10:05.812Z,2.37
2019-03-31T16:12:46.695Z,2.37
2019-03-31T16:15:27.391Z,2.23
2019-03-31T16:18:06.129Z,2.70
2019-03-31T16:20:46.457Z,2.30
2019-03-31T16:23:27.359Z,1.63
2019-03-31T16:26:08.105Z,2.53
2019-03-31T16:28:48.922Z,2.10
2019-03-31T16:31:29.616Z,2.20
2019-03-31T16:34:10.253Z,2.10
2019-03-31T16:36:52.005Z,2.20
2019-03-31T16:39:37.934Z,1.90
2019-03-31T16:42:15.472Z,2.17
2019-03-31T16:44:58.329Z,2.50
2019-03-31T16:47:39.240Z,1.63
2019-03-31T16:50:20.025Z,2.43
2019-03-31T16:53:00.709Z,2.10
2019-03-31T16:55:41.572Z,2.33
2019-03-31T16:58:22.228Z,2.43
2019-03-31T17:01:02.985Z,1.90
2019-03-31T17:03:43.845Z,2.47
2019-03-31T17:06:24.731Z,1.67
2019-03-31T17:09:05.736Z,2.03
2019-03-31T17:11:47.225Z,2.60
2019-03-31T17:14:27.903Z,1.70
2019-03-31T17:17:08.777Z,2.87
2019-03-31T17:19:49.243Z,2.13
2019-03-31T17:22:29.956Z,3.23
2019-03-31T17:25:10.315Z,2.10
2019-03-31T17:27:51.214Z,2.43
2019-03-31T17:30:31.756Z,2.10
2019-03-31T17:33:12.441Z,2.53
2019-03-31T17:35:53.423Z,3.17
2019-03-31T17:38:34.399Z,2.20
2019-03-31T17:41:15.283Z,2.10
2019-03-31T17:43:55.976Z,2.57
2019-03-31T17:46:37.020Z,2.37
2019-03-31T17:49:17.646Z,2.13
2019-03-31T17:52:01.118Z,2.73
2019-03-31T17:54:41.271Z,2.43
2019-03-31T17:57:22.342Z,2.13
2019-03-31T18:00:03.688Z,2.53
2019-03-31T18:02:44.684Z,2.00
2019-03-31T18:05:25.121Z,2.63
2019-03-31T18:08:05.802Z,1.93
2019-03-31T18:10:46.512Z,2.00
2019-03-31T18:13:27.410Z,2.20
2019-03-31T18:16:07.929Z,2.10
2019-03-31T18:18:49.071Z,2.53
2019-03-31T18:21:29.841Z,2.63
2019-03-31T18:24:10.494Z,2.50
2019-03-31T18:26:50.930Z,2.20
2019-03-31T18:29:31.185Z,2.63
2019-03-31T18:32:12.075Z,2.77
2019-03-31T18:34:52.792Z,2.97
2019-03-31T18:37:33.561Z,2.53
2019-03-31T18:40:14.445Z,3.00
2019-03-31T18:42:55.029Z,2.77
2019-03-31T18:45:35.688Z,2.90
2019-03-31T18:48:16.362Z,2.80
2019-03-31T18:50:56.803Z,2.70
2019-03-31T18:53:42.076Z,2.87
2019-03-31T18:56:42.452Z,2.57
2019-03-31T18:59:25.090Z,2.67
2019-03-31T19:02:25.479Z,3.17
2019-03-31T19:05:07.460Z,2.87
2019-03-31T19:08:07.861Z,3.27
2019-03-31T19:10:50.667Z,2.60
2019-03-31T19:13:36.493Z,3.10
2019-03-31T19:16:36.705Z,2.70
2019-03-31T19:19:21.625Z,2.83
2019-03-31T19:22:06.495Z,2.90
2019-03-31T19:25:06.101Z,3.00
2019-03-31T19:27:51.901Z,3.57
2019-03-31T19:30:52.136Z,2.60
2019-03-31T19:33:34.964Z,2.57
2019-03-31T19:36:34.468Z,2.07
2019-03-31T19:39:34.646Z,2.03
2019-03-31T19:42:34.100Z,2.60
2019-03-31T19:45:18.883Z,1.90
2019-03-31T19:48:18.420Z,1.90
2019-03-31T19:51:18.225Z,1.80
2019-03-31T19:54:18.310Z,1.90
2019-03-31T19:57:18.555Z,2.17
2019-03-31T20:00:18.731Z,2.30
2019-03-31T20:03:01.722Z,1.73
2019-03-31T20:06:02.072Z,1.80
2019-03-31T20:11:38.217Z,2.80
2019-03-31T20:14:23.744Z,2.13
2019-03-31T20:17:23.406Z,6.03
2019-03-31T20:20:23.585Z,2.07
2019-03-31T20:23:05.576Z,2.23
2019-03-31T20:25:51.049Z,1.90
2019-03-31T20:31:44.429Z,2.13
2019-03-31T20:34:26.496Z,2.30
2019-03-31T20:40:20.865Z,1.90
2019-03-31T20:43:06.004Z,1.70
2019-03-31T20:45:46.272Z,2.13
2019-03-31T20:48:26.940Z,2.33
2019-03-31T20:51:07.367Z,2.40
2019-03-31T20:53:47.730Z,2.13
2019-03-31T20:56:28.422Z,2.53
2019-03-31T20:59:09.026Z,2.23
2019-03-31T21:01:49.627Z,2.27
2019-03-31T21:04:30.670Z,2.07
2019-03-31T21:07:11.591Z,2.97
2019-03-31T21:09:52.183Z,3.33
2019-03-31T21:12:32.942Z,1.80
2019-03-31T21:15:13.358Z,2.23
2019-03-31T21:17:53.681Z,2.00
2019-03-31T21:20:34.881Z,1.63
2019-03-31T21:23:15.565Z,2.40
2019-03-31T21:25:56.535Z,2.87
2019-03-31T21:28:37.302Z,2.17
2019-03-31T21:31:17.822Z,1.93
2019-03-31T21:33:58.572Z,2.23
2019-03-31T21:36:39.175Z,2.57
2019-03-31T21:39:19.925Z,2.33
2019-03-31T21:42:01.819Z,2.07
2019-03-31T21:44:42.398Z,1.90
2019-03-31T21:47:23.236Z,2.33
2019-03-31T21:50:04.192Z,2.53
2019-03-31T21:52:45.057Z,2.63
2019-03-31T21:55:25.599Z,1.97
2019-03-31T21:58:05.876Z,1.93
2019-03-31T22:00:48.351Z,2.27
2019-03-31T22:03:29.185Z,1.97
2019-03-31T22:06:10.273Z,1.93
2019-03-31T22:08:51.127Z,2.10
2019-03-31T22:11:31.958Z,1.77
2019-03-31T22:14:12.724Z,2.33
2019-03-31T22:16:53.258Z,2.97
2019-03-31T22:19:34.107Z,2.60
2019-03-31T22:22:14.644Z,2.47
2019-03-31T22:24:55.377Z,2.00
2019-03-31T22:27:36.098Z,2.17
2019-03-31T22:30:16.671Z,2.70
2019-03-31T22:32:57.562Z,2.53
2019-03-31T22:35:38.404Z,2.37
2019-03-31T22:38:19.285Z,2.07
2019-03-31T22:40:59.991Z,2.33
2019-03-31T22:43:40.890Z,2.33
2019-03-31T22:46:22.892Z,2.03
2019-03-31T22:49:03.692Z,3.00
2019-03-31T22:51:44.323Z,2.07
2019-03-31T22:54:25.183Z,1.60
2019-03-31T22:57:05.746Z,2.30
2019-03-31T22:59:46.376Z,2.67
2019-03-31T23:02:26.733Z,2.37
2019-03-31T23:05:07.370Z,2.70
2019-03-31T23:07:48.340Z,2.77
2019-03-31T23:10:29.220Z,2.83
2019-03-31T23:13:11.285Z,2.20
2019-03-31T23:15:52.445Z,2.30
2019-03-31T23:18:32.941Z,2.23
2019-03-31T23:21:13.509Z,2.83
2019-03-31T23:23:54.252Z,2.07
2019-03-31T23:26:35.156Z,1.83
2019-03-31T23:29:15.844Z,2.20
2019-03-31T23:31:56.920Z,2.00
2019-03-31T23:34:37.577Z,1.80
2019-03-31T23:37:18.215Z,2.03
2019-03-31T23:39:58.798Z,2.73
2019-03-31T23:42:39.435Z,2.17
2019-03-31T23:45:19.934Z,2.30
2019-03-31T23:48:00.720Z,1.53
2019-03-31T23:50:41.703Z,2.20
2019-03-31T23:53:22.483Z,1.77
2019-03-31T23:56:03.394Z,2.57
2019-03-31T23:58:44.091Z,2.37
